Time;durP1;ratioP1;P1;durP2;ratioP2;P2;SDS_P1;SDS_P2;PMS_P1;PMS_P2;Temp;Humidity;BMP_temperature;BMP_pressure;BME280_temperature;BME280_humidity;BME280_pressure;Samples;Min_cycle;Max_cycle;Signal;HPM_P1;HPM_P2
2023/06/30 00:04:27;;;;;;;6.60;4.38;;;;;;;;;;12671023;23;20930;-85
2023/06/30 00:09:29;;;;;;;5.87;4.30;;;;;;;;;;12671908;23;20475;-85
2023/06/30 00:14:32;;;;;;;6.57;4.50;;;;;;;;;;12691555;23;20371;-84
2023/06/30 00:19:35;;;;;;;7.18;4.20;;;;;;;;;;12671295;23;20450;-85
2023/06/30 00:24:37;;;;;;;4.90;4.13;;;;;;;;;;12671209;23;20391;-85
2023/06/30 00:29:41;;;;;;;5.07;4.15;;;;;;;;;;12671451;23;20442;-85
2023/06/30 00:34:43;;;;;;;5.10;4.03;;;;;;;;;;12671218;23;20439;-85
2023/06/30 00:39:46;;;;;;;5.15;3.83;;;;;;;;;;12670651;23;20434;-85
2023/06/30 00:44:49;;;;;;;5.55;4.10;;;;;;;;;;12671423;23;20878;-85
2023/06/30 00:49:52;;;;;;;6.07;4.72;;;;;;;;;;12670591;23;20429;-85
2023/06/30 00:54:54;;;;;;;6.03;4.20;;;;;;;;;;12670627;23;20371;-85
2023/06/30 01:00:04;;;;;;;6.63;4.60;;;;;;;;;;12671838;23;20445;-85
2023/06/30 01:05:11;;;;;;;6.72;4.55;;;;;;;;;;12691476;23;20957;-85
2023/06/30 01:10:16;;;;;;;7.70;4.55;;;;;;;;;;12670625;23;20379;-85
2023/06/30 01:15:20;;;;;;;5.82;4.20;;;;;;;;;;12670603;23;21006;-85
2023/06/30 01:20:23;;;;;;;6.38;3.97;;;;;;;;;;12670489;23;20399;-85
2023/06/30 01:25:29;;;;;;;5.17;3.90;;;;;;;;;;12670126;23;20971;-85
2023/06/30 01:30:33;;;;;;;6.18;4.22;;;;;;;;;;12690878;23;20755;-86
2023/06/30 01:35:35;;;;;;;5.30;4.68;;;;;;;;;;12670485;23;20426;-85
2023/06/30 01:40:38;;;;;;;8.20;4.53;;;;;;;;;;12669907;23;20457;-85
2023/06/30 01:45:42;;;;;;;7.22;5.30;;;;;;;;;;12670876;23;20469;-85
2023/06/30 01:50:45;;;;;;;6.68;4.97;;;;;;;;;;12670136;23;20383;-85
2023/06/30 01:55:48;;;;;;;6.93;5.15;;;;;;;;;;12670764;23;20374;-85
2023/06/30 02:00:52;;;;;;;7.20;4.95;;;;;;;;;;12670783;23;20434;-85
2023/06/30 02:05:54;;;;;;;6.35;5.30;;;;;;;;;;12670460;23;20457;-84
2023/06/30 02:10:56;;;;;;;5.35;4.60;;;;;;;;;;12669822;23;20367;-85
2023/06/30 02:16:00;;;;;;;7.35;5.30;;;;;;;;;;12669756;23;20443;-85
2023/06/30 02:21:02;;;;;;;5.97;5.05;;;;;;;;;;12668996;23;20379;-86
2023/06/30 02:26:04;;;;;;;5.87;4.70;;;;;;;;;;12669661;23;20419;-85
2023/06/30 02:31:08;;;;;;;7.35;4.88;;;;;;;;;;12669407;23;20437;-85
2023/06/30 02:36:11;;;;;;;5.28;4.78;;;;;;;;;;12669625;23;20375;-84
2023/06/30 02:41:13;;;;;;;6.82;4.90;;;;;;;;;;12679089;23;20871;-85
2023/06/30 02:46:17;;;;;;;7.37;5.23;;;;;;;;;;12674698;23;20418;-85
2023/06/30 02:51:19;;;;;;;8.17;5.23;;;;;;;;;;12672795;23;20371;-84
2023/06/30 02:56:22;;;;;;;7.15;4.90;;;;;;;;;;12673697;23;20367;-85
2023/06/30 03:01:25;;;;;;;6.00;4.80;;;;;;;;;;12673347;23;20375;-85
2023/06/30 03:06:28;;;;;;;6.50;4.70;;;;;;;;;;12673090;23;20473;-85
2023/06/30 03:11:30;;;;;;;5.47;4.85;;;;;;;;;;12675630;23;20371;-85
2023/06/30 03:16:36;;;;;;;6.32;5.25;;;;;;;;;;12672631;23;20371;-83
2023/06/30 03:21:38;;;;;;;6.55;5.38;;;;;;;;;;12693006;23;20689;-85
2023/06/30 03:26:41;;;;;;;6.87;5.40;;;;;;;;;;12673208;23;20422;-85
2023/06/30 03:31:44;;;;;;;6.85;5.80;;;;;;;;;;12693158;23;20407;-85
2023/06/30 03:36:47;;;;;;;8.23;5.27;;;;;;;;;;12692210;23;20371;-85
2023/06/30 03:41:49;;;;;;;7.10;5.28;;;;;;;;;;12671890;23;20379;-85
2023/06/30 03:46:53;;;;;;;6.03;4.93;;;;;;;;;;12672237;23;20395;-84
2023/06/30 03:51:56;;;;;;;5.63;5.13;;;;;;;;;;12671590;23;20371;-84
2023/06/30 03:56:58;;;;;;;5.80;5.30;;;;;;;;;;12671516;23;20838;-85
2023/06/30 04:02:02;;;;;;;6.50;5.40;;;;;;;;;;12692044;23;20371;-85
2023/06/30 04:07:05;;;;;;;6.03;5.20;;;;;;;;;;12671229;23;20395;-85
2023/06/30 04:12:08;;;;;;;8.00;5.50;;;;;;;;;;12672407;23;20375;-84
2023/06/30 04:17:11;;;;;;;7.00;5.13;;;;;;;;;;12671344;23;20395;-84
2023/06/30 04:22:14;;;;;;;7.28;5.60;;;;;;;;;;12671548;23;20383;-84
2023/06/30 04:27:17;;;;;;;7.72;6.55;;;;;;;;;;12671932;23;20391;-84
2023/06/30 04:32:20;;;;;;;7.57;6.37;;;;;;;;;;12671393;23;20364;-85
2023/06/30 04:37:23;;;;;;;7.60;5.97;;;;;;;;;;12670385;23;20422;-84
2023/06/30 04:42:28;;;;;;;6.78;6.00;;;;;;;;;;12690795;23;20430;-85
2023/06/30 04:47:31;;;;;;;6.83;5.40;;;;;;;;;;12670559;23;20422;-84
2023/06/30 04:52:34;;;;;;;6.15;5.50;;;;;;;;;;12670543;23;20375;-85
2023/06/30 04:57:36;;;;;;;6.80;4.90;;;;;;;;;;12690924;23;20379;-85
2023/06/30 05:02:40;;;;;;;5.90;3.80;;;;;;;;;;12690970;23;20836;-84
2023/06/30 05:07:42;;;;;;;4.93;3.53;;;;;;;;;;12670998;23;20391;-85
2023/06/30 05:12:45;;;;;;;5.45;3.33;;;;;;;;;;12671946;23;20531;-85
2023/06/30 05:17:48;;;;;;;4.80;3.40;;;;;;;;;;12671435;23;20438;-85
2023/06/30 05:22:51;;;;;;;5.37;3.40;;;;;;;;;;12671867;23;20371;-85
2023/06/30 05:27:54;;;;;;;6.55;4.03;;;;;;;;;;12671564;23;20398;-85
2023/06/30 05:32:58;;;;;;;6.03;4.28;;;;;;;;;;12671268;23;20368;-85
2023/06/30 05:38:00;;;;;;;4.38;3.88;;;;;;;;;;12670283;23;20371;-86
2023/06/30 05:43:03;;;;;;;7.60;4.27;;;;;;;;;;12689859;23;20461;-86
2023/06/30 05:48:06;;;;;;;7.85;4.95;;;;;;;;;;12669997;23;20422;-85
2023/06/30 05:53:09;;;;;;;5.40;4.35;;;;;;;;;;12669063;23;20752;-85
2023/06/30 05:58:11;;;;;;;6.43;4.50;;;;;;;;;;12668965;23;20426;-85
2023/06/30 06:03:15;;;;;;;6.97;4.30;;;;;;;;;;12669461;23;20370;-84
2023/06/30 06:08:17;;;;;;;5.75;4.97;;;;;;;;;;12689681;23;20926;-84
2023/06/30 06:13:34;;;;;;;6.65;4.78;;;;;;;;;;12670816;23;20403;-85
2023/06/30 06:18:38;;;;;;;5.93;4.20;;;;;;;;;;12670476;23;20433;-86
2023/06/30 06:23:40;;;;;;;6.70;5.40;;;;;;;;;;12673828;23;20375;-85
2023/06/30 06:28:43;;;;;;;6.90;4.50;;;;;;;;;;12673096;23;20383;-85
2023/06/30 06:33:47;;;;;;;7.00;4.75;;;;;;;;;;12674625;23;20359;-85
2023/06/30 06:38:49;;;;;;;6.67;4.27;;;;;;;;;;12674536;23;20843;-86
2023/06/30 06:43:51;;;;;;;6.00;4.10;;;;;;;;;;12672951;23;20374;-85
2023/06/30 06:48:55;;;;;;;7.22;3.80;;;;;;;;;;12673271;23;20378;-86
2023/06/30 06:53:58;;;;;;;7.32;3.92;;;;;;;;;;12673142;23;21028;-85
2023/06/30 06:59:00;;;;;;;7.07;4.43;;;;;;;;;;12673451;23;20449;-86
2023/06/30 07:04:04;;;;;;;6.95;4.40;;;;;;;;;;12673819;23;20422;-86
2023/06/30 07:09:06;;;;;;;7.53;3.80;;;;;;;;;;12672625;23;20376;-82
2023/06/30 07:14:10;;;;;;;7.70;4.53;;;;;;;;;;12671356;23;20367;-86
2023/06/30 07:19:13;;;;;;;6.50;4.37;;;;;;;;;;12673826;23;20426;-85
2023/06/30 07:24:15;;;;;;;7.70;4.70;;;;;;;;;;12672342;23;20367;-86
2023/06/30 07:29:18;;;;;;;9.02;4.22;;;;;;;;;;12693074;23;20383;-85
2023/06/30 07:34:23;;;;;;;8.93;4.30;;;;;;;;;;12672690;23;20438;-86
2023/06/30 07:39:25;;;;;;;11.23;3.92;;;;;;;;;;12672722;23;20422;-86
2023/06/30 07:44:28;;;;;;;8.05;3.50;;;;;;;;;;12672203;23;20391;-85
2023/06/30 07:49:31;;;;;;;7.03;2.70;;;;;;;;;;12672074;23;20371;-84
2023/06/30 07:54:34;;;;;;;5.93;2.30;;;;;;;;;;12692151;23;20407;-85
2023/06/30 07:59:36;;;;;;;4.93;2.37;;;;;;;;;;12671419;23;20744;-85
2023/06/30 08:04:41;;;;;;;4.53;2.67;;;;;;;;;;12672514;23;20925;-86
2023/06/30 08:09:43;;;;;;;6.47;2.83;;;;;;;;;;12671162;23;20402;-85
2023/06/30 08:14:48;;;;;;;6.20;2.65;;;;;;;;;;12671855;23;20372;-85
2023/06/30 08:19:51;;;;;;;2.95;2.50;;;;;;;;;;12671712;23;20368;-86
2023/06/30 08:24:54;;;;;;;4.63;2.90;;;;;;;;;;12670344;23;20409;-85
2023/06/30 08:29:56;;;;;;;4.15;2.22;;;;;;;;;;12670545;23;20371;-84
2023/06/30 08:35:00;;;;;;;5.77;2.37;;;;;;;;;;12691091;23;20371;-85
2023/06/30 08:40:03;;;;;;;4.15;2.38;;;;;;;;;;12670632;23;20434;-85
2023/06/30 08:45:07;;;;;;;3.92;1.92;;;;;;;;;;12670416;23;20450;-85
2023/06/30 08:50:11;;;;;;;4.70;2.75;;;;;;;;;;12670143;23;20898;-85
2023/06/30 08:55:14;;;;;;;5.20;2.33;;;;;;;;;;12669392;23;20682;-85
2023/06/30 09:00:17;;;;;;;3.72;1.95;;;;;;;;;;12671759;23;20402;-84
2023/06/30 09:05:21;;;;;;;3.65;1.88;;;;;;;;;;12670209;23;20418;-85
2023/06/30 09:10:26;;;;;;;2.63;1.90;;;;;;;;;;12670730;23;20375;-85
2023/06/30 09:15:29;;;;;;;2.05;1.70;;;;;;;;;;12670532;23;20748;-86
2023/06/30 09:20:32;;;;;;;2.92;1.75;;;;;;;;;;12670965;23;20740;-86
2023/06/30 09:25:39;;;;;;;3.60;2.40;;;;;;;;;;12669761;23;20449;-86
2023/06/30 09:30:47;;;;;;;3.78;2.40;;;;;;;;;;12670081;23;20456;-86
2023/06/30 09:35:51;;;;;;;2.42;2.13;;;;;;;;;;12668494;23;20371;-86
2023/06/30 09:40:53;;;;;;;4.30;2.67;;;;;;;;;;12685321;23;20438;-86
2023/06/30 09:45:57;;;;;;;4.20;2.10;;;;;;;;;;12670811;23;20855;-86
2023/06/30 09:51:00;;;;;;;3.05;2.13;;;;;;;;;;12672775;23;20425;-86
2023/06/30 09:56:03;;;;;;;5.88;2.28;;;;;;;;;;12673679;23;20438;-86
2023/06/30 10:01:06;;;;;;;7.20;2.60;;;;;;;;;;12694020;23;20363;-86
2023/06/30 10:06:10;;;;;;;5.27;2.83;;;;;;;;;;12673970;23;20382;-85
2023/06/30 10:11:13;;;;;;;4.07;2.27;;;;;;;;;;12673961;23;20930;-85
2023/06/30 10:16:17;;;;;;;3.33;2.17;;;;;;;;;;12674667;23;20370;-85
2023/06/30 10:21:21;;;;;;;3.70;1.60;;;;;;;;;;12673780;23;20399;-85
2023/06/30 10:26:24;;;;;;;2.73;1.60;;;;;;;;;;12673294;23;20395;-86
2023/06/30 10:31:27;;;;;;;2.27;1.50;;;;;;;;;;12674449;23;20363;-85
2023/06/30 10:36:31;;;;;;;3.17;1.48;;;;;;;;;;12673451;23;20426;-85
2023/06/30 10:41:46;;;;;;;1.98;1.60;;;;;;;;;;12672617;23;20437;-85
2023/06/30 10:46:53;;;;;;;2.30;1.43;;;;;;;;;;12672571;23;20391;-86
2023/06/30 10:51:58;;;;;;;1.60;1.50;;;;;;;;;;12673231;23;20934;-85
2023/06/30 10:57:10;;;;;;;2.00;1.70;;;;;;;;;;12672597;23;20918;-86
2023/06/30 11:02:24;;;;;;;2.70;1.70;;;;;;;;;;12672528;23;20371;-85
2023/06/30 11:07:30;;;;;;;2.80;1.80;;;;;;;;;;12672927;23;20701;-85
2023/06/30 11:12:51;;;;;;;3.95;2.40;;;;;;;;;;12693098;23;20839;-85
2023/06/30 11:18:01;;;;;;;2.10;1.90;;;;;;;;;;12673140;23;20438;-85
2023/06/30 11:23:06;;;;;;;3.40;1.80;;;;;;;;;;12672180;23;20430;-86
2023/06/30 11:28:12;;;;;;;2.58;2.03;;;;;;;;;;12672695;23;20395;-85
2023/06/30 11:33:14;;;;;;;2.70;2.30;;;;;;;;;;12692924;23;20367;-85
2023/06/30 11:38:18;;;;;;;4.25;2.50;;;;;;;;;;12692367;23;20856;-85
2023/06/30 11:43:22;;;;;;;5.50;2.57;;;;;;;;;;12671363;23;20410;-85
2023/06/30 11:48:24;;;;;;;2.85;2.38;;;;;;;;;;12672366;23;20391;-86
2023/06/30 11:53:30;;;;;;;2.88;2.20;;;;;;;;;;12671677;23;20434;-86
2023/06/30 11:58:33;;;;;;;2.70;2.13;;;;;;;;;;12672514;23;20418;-86
2023/06/30 12:03:35;;;;;;;3.17;1.90;;;;;;;;;;12672454;23;20379;-84
2023/06/30 12:08:41;;;;;;;2.07;1.50;;;;;;;;;;12691517;23;20391;-85
2023/06/30 12:13:44;;;;;;;1.50;1.30;;;;;;;;;;12670901;23;20375;-86
2023/06/30 12:18:46;;;;;;;4.57;1.40;;;;;;;;;;12671181;23;20364;-86
2023/06/30 12:23:50;;;;;;;2.25;1.25;;;;;;;;;;12671805;23;20426;-85
2023/06/30 12:28:53;;;;;;;2.83;1.55;;;;;;;;;;12691611;23;20716;-86
2023/06/30 12:33:55;;;;;;;3.30;1.20;;;;;;;;;;12672196;23;20760;-86
2023/06/30 12:38:59;;;;;;;33.22;4.65;;;;;;;;;;12670770;23;20402;-86
2023/06/30 12:44:03;;;;;;;2.00;1.30;;;;;;;;;;12670802;23;21033;-86
2023/06/30 12:49:05;;;;;;;2.20;1.10;;;;;;;;;;12671154;23;20968;-86
2023/06/30 12:54:09;;;;;;;11.90;1.90;;;;;;;;;;12670482;23;20427;-85
2023/06/30 12:59:11;;;;;;;71.20;6.85;;;;;;;;;;12671283;23;20419;-86
2023/06/30 13:04:14;;;;;;;30.00;2.75;;;;;;;;;;12671007;23;20442;-85
2023/06/30 13:09:19;;;;;;;1.83;1.10;;;;;;;;;;12669895;23;20947;-86
2023/06/30 13:14:21;;;;;;;3.87;1.20;;;;;;;;;;12669954;23;20379;-85
2023/06/30 13:19:24;;;;;;;22.47;2.33;;;;;;;;;;12689976;23;20414;-86
2023/06/30 13:24:30;;;;;;;11.00;1.98;;;;;;;;;;12668859;23;21436;-86
2023/06/30 13:29:32;;;;;;;1.77;1.30;;;;;;;;;;12690428;23;20383;-87
2023/06/30 13:34:35;;;;;;;35.25;3.28;;;;;;;;;;12670734;23;20451;-86
2023/06/30 13:39:39;;;;;;;11.70;2.50;;;;;;;;;;12669188;23;20371;-86
2023/06/30 13:44:41;;;;;;;2.08;1.52;;;;;;;;;;12669661;23;20645;-86
2023/06/30 13:49:44;;;;;;;8.45;2.08;;;;;;;;;;12669968;23;20379;-86
2023/06/30 13:54:48;;;;;;;1.65;1.40;;;;;;;;;;12670140;23;20371;-86
2023/06/30 13:59:50;;;;;;;1.57;1.47;;;;;;;;;;12670305;23;20449;-87
2023/06/30 14:04:52;;;;;;;1.80;1.30;;;;;;;;;;12670254;23;20371;-86
2023/06/30 14:09:58;;;;;;;4.30;1.60;;;;;;;;;;12669757;23;20468;-86
2023/06/30 14:15:00;;;;;;;2.08;1.58;;;;;;;;;;12689978;23;20367;-86
2023/06/30 14:20:03;;;;;;;1.63;1.33;;;;;;;;;;12670233;23;20410;-86
2023/06/30 14:25:20;;;;;;;3.90;1.38;;;;;;;;;;12668561;23;20531;-86
2023/06/30 14:30:28;;;;;;;1.95;1.55;;;;;;;;;;12670366;23;20473;-85
2023/06/30 14:35:31;;;;;;;4.60;1.60;;;;;;;;;;12672495;23;20398;-84
2023/06/30 14:40:34;;;;;;;1.87;1.40;;;;;;;;;;12673284;23;20379;-86
2023/06/30 14:45:37;;;;;;;2.03;1.33;;;;;;;;;;12673521;23;20367;-86
2023/06/30 14:50:39;;;;;;;1.30;1.20;;;;;;;;;;12672741;23;20759;-86
2023/06/30 14:55:43;;;;;;;2.08;1.50;;;;;;;;;;12672870;23;20678;-86
2023/06/30 15:00:45;;;;;;;1.20;1.10;;;;;;;;;;12693872;23;20765;-86
2023/06/30 15:05:48;;;;;;;1.50;1.40;;;;;;;;;;12674032;23;20371;-86
2023/06/30 15:10:51;;;;;;;1.70;1.40;;;;;;;;;;12692666;23;20386;-86
2023/06/30 15:15:54;;;;;;;1.42;1.27;;;;;;;;;;12672943;23;20751;-86
2023/06/30 15:20:56;;;;;;;2.58;1.30;;;;;;;;;;12693304;23;20371;-86
2023/06/30 15:26:00;;;;;;;2.60;1.63;;;;;;;;;;12692266;23;20379;-87
2023/06/30 15:31:02;;;;;;;1.50;1.40;;;;;;;;;;12692294;23;20852;-86
2023/06/30 15:36:05;;;;;;;3.40;1.73;;;;;;;;;;12672999;23;20375;-86
2023/06/30 15:41:09;;;;;;;2.63;1.50;;;;;;;;;;12671920;23;20407;-86
2023/06/30 15:46:11;;;;;;;2.35;1.70;;;;;;;;;;12672116;23;20441;-85
2023/06/30 15:51:14;;;;;;;3.60;1.60;;;;;;;;;;12671824;23;20399;-86
2023/06/30 15:56:18;;;;;;;2.10;1.70;;;;;;;;;;12672563;23;20371;-86
2023/06/30 16:01:20;;;;;;;2.70;2.03;;;;;;;;;;12691866;23;20375;-86
2023/06/30 16:06:23;;;;;;;3.65;2.20;;;;;;;;;;12671457;23;20398;-86
2023/06/30 16:11:26;;;;;;;2.97;2.30;;;;;;;;;;12670492;23;20383;-86
2023/06/30 16:16:29;;;;;;;3.30;2.42;;;;;;;;;;12671598;23;20756;-86
2023/06/30 16:21:32;;;;;;;3.20;2.00;;;;;;;;;;12671212;23;20946;-86
2023/06/30 16:26:35;;;;;;;3.05;1.95;;;;;;;;;;12671533;23;20442;-86
2023/06/30 16:31:38;;;;;;;3.08;2.53;;;;;;;;;;12672405;23;20386;-86
2023/06/30 16:36:40;;;;;;;4.82;2.53;;;;;;;;;;12670703;23;20371;-86
2023/06/30 16:41:44;;;;;;;3.70;2.30;;;;;;;;;;12671339;23;20382;-85
2023/06/30 16:46:46;;;;;;;3.55;2.60;;;;;;;;;;12671401;23;20367;-86
2023/06/30 16:51:48;;;;;;;2.75;2.47;;;;;;;;;;12670025;23;20372;-86
2023/06/30 16:56:52;;;;;;;3.97;2.60;;;;;;;;;;12690482;23;20370;-86
2023/06/30 17:01:55;;;;;;;4.57;2.72;;;;;;;;;;12670864;23;20371;-86
2023/06/30 17:06:57;;;;;;;4.28;2.70;;;;;;;;;;12691315;23;20383;-86
2023/06/30 17:12:01;;;;;;;4.40;2.67;;;;;;;;;;12671334;23;20371;-85
2023/06/30 17:17:03;;;;;;;4.38;2.70;;;;;;;;;;12670454;23;20836;-85
2023/06/30 17:22:07;;;;;;;3.03;2.83;;;;;;;;;;12669675;23;20372;-86
2023/06/30 17:27:11;;;;;;;3.75;2.83;;;;;;;;;;12670527;23;20371;-85
2023/06/30 17:32:13;;;;;;;4.53;3.17;;;;;;;;;;12670517;23;20411;-86
2023/06/30 17:37:16;;;;;;;4.57;2.80;;;;;;;;;;12670206;23;20371;-86
2023/06/30 17:42:19;;;;;;;3.67;2.60;;;;;;;;;;12670548;23;20425;-85
2023/06/30 17:47:22;;;;;;;4.72;3.30;;;;;;;;;;12670838;23;20403;-85
2023/06/30 17:52:24;;;;;;;5.25;3.25;;;;;;;;;;12670237;23;20371;-85
2023/06/30 17:57:28;;;;;;;4.07;3.40;;;;;;;;;;12670646;23;20372;-86
2023/06/30 18:02:30;;;;;;;4.20;3.80;;;;;;;;;;12671488;23;20437;-86
2023/06/30 18:07:32;;;;;;;5.20;4.07;;;;;;;;;;12669507;23;20449;-86
2023/06/30 18:12:36;;;;;;;5.32;3.80;;;;;;;;;;12674095;23;20400;-85
2023/06/30 18:17:38;;;;;;;5.43;4.20;;;;;;;;;;12673732;23;20925;-86
2023/06/30 18:22:41;;;;;;;6.57;4.40;;;;;;;;;;12673074;23;20435;-85
2023/06/30 18:27:44;;;;;;;7.05;4.70;;;;;;;;;;12674225;23;20449;-85
2023/06/30 18:32:47;;;;;;;7.13;4.77;;;;;;;;;;12674501;23;20371;-86
2023/06/30 18:37:49;;;;;;;5.70;5.10;;;;;;;;;;12673214;23;20367;-84
2023/06/30 18:42:53;;;;;;;6.13;5.03;;;;;;;;;;12673356;23;20402;-86
2023/06/30 18:47:55;;;;;;;6.60;4.72;;;;;;;;;;12674430;23;20442;-86
2023/06/30 18:52:57;;;;;;;7.72;5.63;;;;;;;;;;12672996;23;20446;-84
2023/06/30 18:58:02;;;;;;;6.00;5.15;;;;;;;;;;12673829;23;20692;-86
2023/06/30 19:03:05;;;;;;;6.20;5.28;;;;;;;;;;12672957;23;20371;-85
2023/06/30 19:08:07;;;;;;;5.67;5.00;;;;;;;;;;12673486;23;21218;-86
2023/06/30 19:13:11;;;;;;;6.68;5.38;;;;;;;;;;12693850;23;20461;-86
2023/06/30 19:18:14;;;;;;;7.00;4.93;;;;;;;;;;12672637;23;20380;-85
2023/06/30 19:23:16;;;;;;;5.47;4.60;;;;;;;;;;12672407;23;20375;-85
2023/06/30 19:28:20;;;;;;;6.45;4.72;;;;;;;;;;12692975;23;20375;-86
2023/06/30 19:33:28;;;;;;;6.22;4.80;;;;;;;;;;12672970;23;20375;-86
2023/06/30 19:38:30;;;;;;;5.15;4.20;;;;;;;;;;12692444;23;20398;-84
2023/06/30 19:43:34;;;;;;;5.13;4.63;;;;;;;;;;12692419;23;20383;-86
2023/06/30 19:48:36;;;;;;;3.72;2.75;;;;;;;;;;12672057;23;20391;-85
2023/06/30 19:53:39;;;;;;;5.23;3.50;;;;;;;;;;12671818;23;20426;-85
2023/06/30 19:58:43;;;;;;;4.82;4.32;;;;;;;;;;12671978;23;20934;-85
2023/06/30 20:03:46;;;;;;;5.80;4.35;;;;;;;;;;12672644;23;20419;-85
2023/06/30 20:08:48;;;;;;;5.82;5.13;;;;;;;;;;12672310;23;20391;-85
2023/06/30 20:13:52;;;;;;;8.02;6.40;;;;;;;;;;12672566;23;20379;-86
2023/06/30 20:18:54;;;;;;;7.50;6.10;;;;;;;;;;12672290;23;21129;-85
2023/06/30 20:23:57;;;;;;;6.90;6.05;;;;;;;;;;12671158;23;20418;-86
2023/06/30 20:29:00;;;;;;;7.68;5.85;;;;;;;;;;12670418;23;20677;-85
2023/06/30 20:34:03;;;;;;;10.00;7.57;;;;;;;;;;12670790;23;20367;-85
2023/06/30 20:39:06;;;;;;;6.32;5.72;;;;;;;;;;12671805;23;20376;-85
2023/06/30 20:44:13;;;;;;;5.82;3.97;;;;;;;;;;12686438;23;20429;-85
2023/06/30 20:49:15;;;;;;;5.53;3.73;;;;;;;;;;12670905;23;20860;-85
2023/06/30 20:54:18;;;;;;;4.00;3.60;;;;;;;;;;12671374;23;20757;-85
2023/06/30 20:59:22;;;;;;;3.95;3.40;;;;;;;;;;12670931;23;20696;-85
2023/06/30 21:04:25;;;;;;;4.63;3.78;;;;;;;;;;12671675;23;20367;-85
2023/06/30 21:09:28;;;;;;;4.97;3.70;;;;;;;;;;12671234;23;20395;-85
2023/06/30 21:14:32;;;;;;;5.70;4.17;;;;;;;;;;12690913;23;20371;-85
2023/06/30 21:19:34;;;;;;;5.47;4.67;;;;;;;;;;12670820;23;20426;-85
2023/06/30 21:24:36;;;;;;;5.35;4.85;;;;;;;;;;12669638;23;20375;-85
2023/06/30 21:29:40;;;;;;;7.43;4.40;;;;;;;;;;12670319;23;20927;-85
2023/06/30 21:34:42;;;;;;;7.15;5.40;;;;;;;;;;12670041;23;20375;-86
2023/06/30 21:39:44;;;;;;;5.63;4.97;;;;;;;;;;12670406;23;20371;-86
2023/06/30 21:44:48;;;;;;;7.00;5.40;;;;;;;;;;12671387;23;20411;-85
2023/06/30 21:49:51;;;;;;;7.82;5.18;;;;;;;;;;12671196;23;20442;-85
2023/06/30 21:54:54;;;;;;;5.83;5.23;;;;;;;;;;12670878;23;20375;-86
2023/06/30 21:59:57;;;;;;;5.53;4.93;;;;;;;;;;12671378;23;20371;-86
2023/06/30 22:05:00;;;;;;;5.55;5.05;;;;;;;;;;12671085;23;20375;-86
2023/06/30 22:10:05;;;;;;;5.70;5.20;;;;;;;;;;12670221;23;20710;-86
2023/06/30 22:15:10;;;;;;;6.83;5.50;;;;;;;;;;12670678;23;20367;-85
2023/06/30 22:20:12;;;;;;;7.20;5.90;;;;;;;;;;12671181;23;20893;-86
2023/06/30 22:25:16;;;;;;;7.75;5.60;;;;;;;;;;12669540;23;20430;-86
2023/06/30 22:30:20;;;;;;;7.50;5.50;;;;;;;;;;12670663;23;20431;-85
2023/06/30 22:35:23;;;;;;;6.82;5.32;;;;;;;;;;12669799;23;20973;-85
2023/06/30 22:40:25;;;;;;;6.35;5.75;;;;;;;;;;12671321;23;20919;-85
2023/06/30 22:45:30;;;;;;;6.45;5.85;;;;;;;;;;12670749;23;20453;-85
2023/06/30 22:50:32;;;;;;;6.13;5.53;;;;;;;;;;12670930;23;20395;-85
2023/06/30 22:55:34;;;;;;;6.40;5.47;;;;;;;;;;12670911;23;20521;-85
2023/06/30 23:00:38;;;;;;;5.83;4.97;;;;;;;;;;12694081;23;20383;-86
2023/06/30 23:05:40;;;;;;;6.23;5.60;;;;;;;;;;12674004;23;20368;-85
2023/06/30 23:10:43;;;;;;;7.03;6.32;;;;;;;;;;12673789;23;20383;-85
2023/06/30 23:15:46;;;;;;;6.88;6.25;;;;;;;;;;12673695;23;20367;-86
2023/06/30 23:20:49;;;;;;;7.13;6.43;;;;;;;;;;12693718;23;20765;-86
2023/06/30 23:25:52;;;;;;;7.23;6.13;;;;;;;;;;12672770;23;20434;-85
2023/06/30 23:30:56;;;;;;;7.47;6.68;;;;;;;;;;12673293;23;20391;-86
2023/06/30 23:35:58;;;;;;;7.65;6.82;;;;;;;;;;12674086;23;20426;-86
2023/06/30 23:41:01;;;;;;;7.95;6.70;;;;;;;;;;12854169;22;20384;-86
2023/06/30 23:46:05;;;;;;;8.20;7.40;;;;;;;;;;13047824;22;20361;-85
2023/06/30 23:51:07;;;;;;;7.13;6.43;;;;;;;;;;13046519;22;20457;-85
2023/06/30 23:56:10;;;;;;;7.28;6.10;;;;;;;;;;13046498;22;20740;-86
